sensor_id;sensor_type;location;lat;lon;timestamp;P1;durP1;ratioP1;P2;durP2;ratioP2
49972;SDS011;65693;49.798;10.968;2023-05-14T00:01:27;4.00;;;3.30;;
49972;SDS011;65693;49.798;10.968;2023-05-14T00:03:54;4.32;;;3.50;;
49972;SDS011;65693;49.798;10.968;2023-05-14T00:06:20;4.50;;;3.47;;
49972;SDS011;65693;49.798;10.968;2023-05-14T00:08:47;4.32;;;3.42;;
49972;SDS011;65693;49.798;10.968;2023-05-14T00:11:13;4.45;;;3.63;;
49972;SDS011;65693;49.798;10.968;2023-05-14T00:13:41;4.50;;;3.50;;
49972;SDS011;65693;49.798;10.968;2023-05-14T00:16:07;4.40;;;3.58;;
49972;SDS011;65693;49.798;10.968;2023-05-14T00:18:35;4.53;;;3.75;;
49972;SDS011;65693;49.798;10.968;2023-05-14T00:21:02;4.57;;;3.47;;
49972;SDS011;65693;49.798;10.968;2023-05-14T00:23:28;4.53;;;3.38;;
49972;SDS011;65693;49.798;10.968;2023-05-14T00:25:55;4.35;;;3.72;;
49972;SDS011;65693;49.798;10.968;2023-05-14T00:28:21;4.15;;;3.40;;
49972;SDS011;65693;49.798;10.968;2023-05-14T00:30:47;4.53;;;3.50;;
49972;SDS011;65693;49.798;10.968;2023-05-14T00:33:14;4.63;;;3.88;;
49972;SDS011;65693;49.798;10.968;2023-05-14T00:35:42;3.90;;;3.35;;
49972;SDS011;65693;49.798;10.968;2023-05-14T00:38:08;4.50;;;3.70;;
49972;SDS011;65693;49.798;10.968;2023-05-14T00:40:40;4.45;;;3.20;;
49972;SDS011;65693;49.798;10.968;2023-05-14T00:43:09;4.38;;;3.40;;
49972;SDS011;65693;49.798;10.968;2023-05-14T00:45:36;3.88;;;3.15;;
49972;SDS011;65693;49.798;10.968;2023-05-14T00:48:03;4.82;;;3.75;;
49972;SDS011;65693;49.798;10.968;2023-05-14T00:50:30;4.38;;;3.53;;
49972;SDS011;65693;49.798;10.968;2023-05-14T00:52:58;4.90;;;3.65;;
49972;SDS011;65693;49.798;10.968;2023-05-14T00:55:24;4.93;;;3.80;;
49972;SDS011;65693;49.798;10.968;2023-05-14T00:57:52;5.53;;;3.90;;
49972;SDS011;65693;49.798;10.968;2023-05-14T01:00:21;4.57;;;3.50;;
49972;SDS011;65693;49.798;10.968;2023-05-14T01:02:47;4.43;;;3.30;;
49972;SDS011;65693;49.798;10.968;2023-05-14T01:05:14;4.70;;;3.92;;
49972;SDS011;65693;49.798;10.968;2023-05-14T01:07:43;4.80;;;3.58;;
49972;SDS011;65693;49.798;10.968;2023-05-14T01:10:23;4.45;;;3.47;;
49972;SDS011;65693;49.798;10.968;2023-05-14T01:12:55;5.40;;;3.78;;
49972;SDS011;65693;49.798;10.968;2023-05-14T01:15:29;5.03;;;3.63;;
49972;SDS011;65693;49.798;10.968;2023-05-14T01:17:59;4.22;;;3.38;;
49972;SDS011;65693;49.798;10.968;2023-05-14T01:20:31;4.45;;;3.65;;
49972;SDS011;65693;49.798;10.968;2023-05-14T01:22:58;4.63;;;3.53;;
49972;SDS011;65693;49.798;10.968;2023-05-14T01:25:25;5.03;;;4.00;;
49972;SDS011;65693;49.798;10.968;2023-05-14T01:27:52;4.57;;;3.70;;
49972;SDS011;65693;49.798;10.968;2023-05-14T01:30:27;4.40;;;3.83;;
49972;SDS011;65693;49.798;10.968;2023-05-14T01:32:56;4.70;;;3.33;;
49972;SDS011;65693;49.798;10.968;2023-05-14T01:35:26;4.40;;;3.35;;
49972;SDS011;65693;49.798;10.968;2023-05-14T01:37:55;4.47;;;3.50;;
49972;SDS011;65693;49.798;10.968;2023-05-14T01:40:24;5.22;;;3.90;;
49972;SDS011;65693;49.798;10.968;2023-05-14T01:42:51;4.05;;;3.42;;
49972;SDS011;65693;49.798;10.968;2023-05-14T01:45:18;4.40;;;3.35;;
49972;SDS011;65693;49.798;10.968;2023-05-14T01:47:45;4.85;;;3.70;;
49972;SDS011;65693;49.798;10.968;2023-05-14T01:50:12;4.53;;;3.60;;
49972;SDS011;65693;49.798;10.968;2023-05-14T01:52:38;4.90;;;3.63;;
49972;SDS011;65693;49.798;10.968;2023-05-14T01:55:05;4.65;;;3.70;;
49972;SDS011;65693;49.798;10.968;2023-05-14T01:57:33;4.47;;;3.50;;
49972;SDS011;65693;49.798;10.968;2023-05-14T02:00:00;4.43;;;3.60;;
49972;SDS011;65693;49.798;10.968;2023-05-14T02:02:26;4.75;;;3.58;;
49972;SDS011;65693;49.798;10.968;2023-05-14T02:04:52;4.18;;;3.75;;
49972;SDS011;65693;49.798;10.968;2023-05-14T02:07:19;4.78;;;3.70;;
49972;SDS011;65693;49.798;10.968;2023-05-14T02:09:45;4.80;;;3.80;;
49972;SDS011;65693;49.798;10.968;2023-05-14T02:12:12;5.22;;;3.90;;
49972;SDS011;65693;49.798;10.968;2023-05-14T02:14:39;4.63;;;3.75;;
49972;SDS011;65693;49.798;10.968;2023-05-14T02:17:06;4.80;;;3.90;;
49972;SDS011;65693;49.798;10.968;2023-05-14T02:19:33;4.88;;;3.90;;
49972;SDS011;65693;49.798;10.968;2023-05-14T02:21:59;5.18;;;3.90;;
49972;SDS011;65693;49.798;10.968;2023-05-14T02:24:26;5.32;;;3.95;;
49972;SDS011;65693;49.798;10.968;2023-05-14T02:26:52;4.75;;;3.42;;
49972;SDS011;65693;49.798;10.968;2023-05-14T02:29:18;4.70;;;3.95;;
49972;SDS011;65693;49.798;10.968;2023-05-14T02:31:46;4.78;;;3.80;;
49972;SDS011;65693;49.798;10.968;2023-05-14T02:34:12;4.97;;;3.70;;
49972;SDS011;65693;49.798;10.968;2023-05-14T02:36:40;4.68;;;3.67;;
49972;SDS011;65693;49.798;10.968;2023-05-14T02:39:06;5.82;;;4.15;;
49972;SDS011;65693;49.798;10.968;2023-05-14T02:41:33;4.95;;;3.53;;
49972;SDS011;65693;49.798;10.968;2023-05-14T02:43:59;5.13;;;3.95;;
49972;SDS011;65693;49.798;10.968;2023-05-14T02:46:25;5.07;;;3.97;;
49972;SDS011;65693;49.798;10.968;2023-05-14T02:48:53;4.70;;;3.60;;
49972;SDS011;65693;49.798;10.968;2023-05-14T02:51:20;5.07;;;3.92;;
49972;SDS011;65693;49.798;10.968;2023-05-14T02:53:46;4.13;;;3.45;;
49972;SDS011;65693;49.798;10.968;2023-05-14T02:56:13;5.22;;;4.10;;
49972;SDS011;65693;49.798;10.968;2023-05-14T02:58:40;4.97;;;3.90;;
49972;SDS011;65693;49.798;10.968;2023-05-14T03:01:07;5.25;;;3.85;;
49972;SDS011;65693;49.798;10.968;2023-05-14T03:03:33;4.78;;;3.85;;
49972;SDS011;65693;49.798;10.968;2023-05-14T03:06:02;5.10;;;4.00;;
49972;SDS011;65693;49.798;10.968;2023-05-14T03:08:28;4.63;;;3.80;;
49972;SDS011;65693;49.798;10.968;2023-05-14T03:10:55;4.75;;;3.72;;
49972;SDS011;65693;49.798;10.968;2023-05-14T03:13:21;4.65;;;3.35;;
49972;SDS011;65693;49.798;10.968;2023-05-14T03:15:48;5.20;;;4.07;;
49972;SDS011;65693;49.798;10.968;2023-05-14T03:18:18;4.20;;;3.28;;
49972;SDS011;65693;49.798;10.968;2023-05-14T03:20:45;4.93;;;3.80;;
49972;SDS011;65693;49.798;10.968;2023-05-14T03:23:13;4.63;;;3.55;;
49972;SDS011;65693;49.798;10.968;2023-05-14T03:25:39;5.97;;;4.00;;
49972;SDS011;65693;49.798;10.968;2023-05-14T03:28:06;4.75;;;3.85;;
49972;SDS011;65693;49.798;10.968;2023-05-14T03:30:32;4.97;;;3.70;;
49972;SDS011;65693;49.798;10.968;2023-05-14T03:32:59;5.25;;;4.03;;
49972;SDS011;65693;49.798;10.968;2023-05-14T03:35:25;5.10;;;3.90;;
49972;SDS011;65693;49.798;10.968;2023-05-14T03:37:52;4.43;;;3.70;;
49972;SDS011;65693;49.798;10.968;2023-05-14T03:40:19;4.93;;;4.00;;
49972;SDS011;65693;49.798;10.968;2023-05-14T03:42:46;4.45;;;3.45;;
49972;SDS011;65693;49.798;10.968;2023-05-14T03:45:12;5.13;;;4.22;;
49972;SDS011;65693;49.798;10.968;2023-05-14T03:47:39;4.90;;;3.80;;
49972;SDS011;65693;49.798;10.968;2023-05-14T03:50:06;5.13;;;3.67;;
49972;SDS011;65693;49.798;10.968;2023-05-14T03:52:33;4.93;;;3.78;;
49972;SDS011;65693;49.798;10.968;2023-05-14T03:54:59;5.50;;;4.03;;
49972;SDS011;65693;49.798;10.968;2023-05-14T03:57:27;5.47;;;4.00;;
49972;SDS011;65693;49.798;10.968;2023-05-14T03:59:54;4.88;;;3.90;;
49972;SDS011;65693;49.798;10.968;2023-05-14T04:02:20;4.30;;;3.60;;
49972;SDS011;65693;49.798;10.968;2023-05-14T04:04:47;5.40;;;3.60;;
49972;SDS011;65693;49.798;10.968;2023-05-14T04:07:13;5.57;;;4.10;;
49972;SDS011;65693;49.798;10.968;2023-05-14T04:09:40;5.18;;;4.03;;
49972;SDS011;65693;49.798;10.968;2023-05-14T04:12:07;4.60;;;3.90;;
49972;SDS011;65693;49.798;10.968;2023-05-14T04:14:35;4.68;;;3.83;;
49972;SDS011;65693;49.798;10.968;2023-05-14T04:17:02;4.85;;;3.65;;
49972;SDS011;65693;49.798;10.968;2023-05-14T04:19:28;4.65;;;3.63;;
49972;SDS011;65693;49.798;10.968;2023-05-14T04:21:55;4.35;;;3.65;;
49972;SDS011;65693;49.798;10.968;2023-05-14T04:24:21;5.13;;;3.63;;
49972;SDS011;65693;49.798;10.968;2023-05-14T04:26:48;4.45;;;3.75;;
49972;SDS011;65693;49.798;10.968;2023-05-14T04:29:14;4.88;;;3.63;;
49972;SDS011;65693;49.798;10.968;2023-05-14T04:31:42;4.20;;;3.65;;
49972;SDS011;65693;49.798;10.968;2023-05-14T04:34:09;5.38;;;3.70;;
49972;SDS011;65693;49.798;10.968;2023-05-14T04:36:36;5.25;;;4.10;;
49972;SDS011;65693;49.798;10.968;2023-05-14T04:39:02;4.88;;;3.40;;
49972;SDS011;65693;49.798;10.968;2023-05-14T04:41:30;4.43;;;3.90;;
49972;SDS011;65693;49.798;10.968;2023-05-14T04:43:57;5.50;;;4.03;;
49972;SDS011;65693;49.798;10.968;2023-05-14T04:46:25;5.18;;;3.83;;
49972;SDS011;65693;49.798;10.968;2023-05-14T04:48:53;5.30;;;4.18;;
49972;SDS011;65693;49.798;10.968;2023-05-14T04:51:20;4.90;;;3.78;;
49972;SDS011;65693;49.798;10.968;2023-05-14T04:53:46;4.90;;;4.07;;
49972;SDS011;65693;49.798;10.968;2023-05-14T04:56:13;4.60;;;3.75;;
49972;SDS011;65693;49.798;10.968;2023-05-14T04:58:39;5.47;;;4.30;;
49972;SDS011;65693;49.798;10.968;2023-05-14T05:01:06;4.97;;;4.00;;
49972;SDS011;65693;49.798;10.968;2023-05-14T05:03:33;4.80;;;3.63;;
49972;SDS011;65693;49.798;10.968;2023-05-14T05:06:00;4.85;;;3.90;;
49972;SDS011;65693;49.798;10.968;2023-05-14T05:08:27;5.20;;;4.03;;
49972;SDS011;65693;49.798;10.968;2023-05-14T05:10:53;6.00;;;4.13;;
49972;SDS011;65693;49.798;10.968;2023-05-14T05:13:20;5.50;;;4.07;;
49972;SDS011;65693;49.798;10.968;2023-05-14T05:15:46;4.75;;;3.80;;
49972;SDS011;65693;49.798;10.968;2023-05-14T05:18:13;4.82;;;3.92;;
49972;SDS011;65693;49.798;10.968;2023-05-14T05:20:39;4.80;;;3.58;;
49972;SDS011;65693;49.798;10.968;2023-05-14T05:23:07;4.47;;;3.50;;
49972;SDS011;65693;49.798;10.968;2023-05-14T05:25:33;4.47;;;3.53;;
49972;SDS011;65693;49.798;10.968;2023-05-14T05:28:00;5.60;;;4.43;;
49972;SDS011;65693;49.798;10.968;2023-05-14T05:30:26;5.03;;;3.78;;
49972;SDS011;65693;49.798;10.968;2023-05-14T05:32:54;4.43;;;3.83;;
49972;SDS011;65693;49.798;10.968;2023-05-14T05:35:21;5.60;;;3.85;;
49972;SDS011;65693;49.798;10.968;2023-05-14T05:37:47;5.10;;;4.13;;
49972;SDS011;65693;49.798;10.968;2023-05-14T05:40:15;6.13;;;4.35;;
49972;SDS011;65693;49.798;10.968;2023-05-14T05:42:41;5.20;;;4.28;;
49972;SDS011;65693;49.798;10.968;2023-05-14T05:45:08;5.35;;;4.63;;
49972;SDS011;65693;49.798;10.968;2023-05-14T05:47:35;7.65;;;4.60;;
49972;SDS011;65693;49.798;10.968;2023-05-14T05:50:01;5.90;;;4.47;;
49972;SDS011;65693;49.798;10.968;2023-05-14T05:52:28;6.00;;;4.63;;
49972;SDS011;65693;49.798;10.968;2023-05-14T05:54:54;5.93;;;4.47;;
49972;SDS011;65693;49.798;10.968;2023-05-14T05:57:22;5.68;;;4.32;;
49972;SDS011;65693;49.798;10.968;2023-05-14T05:59:51;5.03;;;4.03;;
49972;SDS011;65693;49.798;10.968;2023-05-14T06:02:17;5.25;;;4.13;;
49972;SDS011;65693;49.798;10.968;2023-05-14T06:04:44;5.65;;;4.07;;
49972;SDS011;65693;49.798;10.968;2023-05-14T06:07:10;6.20;;;4.15;;
49972;SDS011;65693;49.798;10.968;2023-05-14T06:09:37;5.88;;;4.45;;
49972;SDS011;65693;49.798;10.968;2023-05-14T06:12:04;6.28;;;4.40;;
49972;SDS011;65693;49.798;10.968;2023-05-14T06:14:32;5.85;;;4.50;;
49972;SDS011;65693;49.798;10.968;2023-05-14T06:16:58;5.13;;;4.32;;
49972;SDS011;65693;49.798;10.968;2023-05-14T06:19:25;5.57;;;4.53;;
49972;SDS011;65693;49.798;10.968;2023-05-14T06:21:51;6.95;;;4.63;;
49972;SDS011;65693;49.798;10.968;2023-05-14T06:24:18;5.50;;;4.40;;
49972;SDS011;65693;49.798;10.968;2023-05-14T06:26:45;5.65;;;4.22;;
49972;SDS011;65693;49.798;10.968;2023-05-14T06:29:12;4.90;;;4.00;;
49972;SDS011;65693;49.798;10.968;2023-05-14T06:31:40;5.93;;;4.55;;
49972;SDS011;65693;49.798;10.968;2023-05-14T06:34:06;5.40;;;4.63;;
49972;SDS011;65693;49.798;10.968;2023-05-14T06:36:33;5.85;;;4.65;;
49972;SDS011;65693;49.798;10.968;2023-05-14T06:38:59;5.60;;;4.40;;
49972;SDS011;65693;49.798;10.968;2023-05-14T06:41:26;5.72;;;4.30;;
49972;SDS011;65693;49.798;10.968;2023-05-14T06:43:53;6.80;;;4.40;;
49972;SDS011;65693;49.798;10.968;2023-05-14T06:46:20;5.25;;;4.03;;
49972;SDS011;65693;49.798;10.968;2023-05-14T06:48:48;5.68;;;3.80;;
49972;SDS011;65693;49.798;10.968;2023-05-14T06:51:14;5.82;;;4.30;;
49972;SDS011;65693;49.798;10.968;2023-05-14T06:53:41;5.55;;;4.38;;
49972;SDS011;65693;49.798;10.968;2023-05-14T06:56:08;5.97;;;4.50;;
49972;SDS011;65693;49.798;10.968;2023-05-14T06:58:34;6.38;;;4.10;;
49972;SDS011;65693;49.798;10.968;2023-05-14T07:01:00;6.65;;;4.38;;
49972;SDS011;65693;49.798;10.968;2023-05-14T07:03:27;5.88;;;4.47;;
49972;SDS011;65693;49.798;10.968;2023-05-14T07:05:55;5.35;;;4.13;;
49972;SDS011;65693;49.798;10.968;2023-05-14T07:08:21;5.30;;;4.13;;
49972;SDS011;65693;49.798;10.968;2023-05-14T07:10:48;5.75;;;4.63;;
49972;SDS011;65693;49.798;10.968;2023-05-14T07:13:14;5.82;;;4.72;;
49972;SDS011;65693;49.798;10.968;2023-05-14T07:15:41;5.07;;;4.22;;
49972;SDS011;65693;49.798;10.968;2023-05-14T07:18:07;5.38;;;4.10;;
49972;SDS011;65693;49.798;10.968;2023-05-14T07:20:33;5.53;;;4.68;;
49972;SDS011;65693;49.798;10.968;2023-05-14T07:23:01;5.85;;;4.68;;
49972;SDS011;65693;49.798;10.968;2023-05-14T07:25:28;6.07;;;4.70;;
49972;SDS011;65693;49.798;10.968;2023-05-14T07:27:54;5.43;;;4.40;;
49972;SDS011;65693;49.798;10.968;2023-05-14T07:30:21;5.35;;;4.28;;
49972;SDS011;65693;49.798;10.968;2023-05-14T07:32:47;5.57;;;4.38;;
49972;SDS011;65693;49.798;10.968;2023-05-14T07:35:13;6.18;;;4.65;;
49972;SDS011;65693;49.798;10.968;2023-05-14T07:37:40;5.95;;;4.47;;
49972;SDS011;65693;49.798;10.968;2023-05-14T07:40:08;6.13;;;4.68;;
49972;SDS011;65693;49.798;10.968;2023-05-14T07:42:35;5.97;;;4.63;;
49972;SDS011;65693;49.798;10.968;2023-05-14T07:45:01;6.38;;;4.82;;
49972;SDS011;65693;49.798;10.968;2023-05-14T07:47:28;5.97;;;4.35;;
49972;SDS011;65693;49.798;10.968;2023-05-14T07:49:55;5.70;;;4.65;;
49972;SDS011;65693;49.798;10.968;2023-05-14T07:52:22;6.30;;;4.75;;
49972;SDS011;65693;49.798;10.968;2023-05-14T07:54:49;5.55;;;4.68;;
49972;SDS011;65693;49.798;10.968;2023-05-14T07:57:17;6.95;;;4.53;;
49972;SDS011;65693;49.798;10.968;2023-05-14T07:59:43;6.05;;;4.53;;
49972;SDS011;65693;49.798;10.968;2023-05-14T08:02:10;6.00;;;4.80;;
49972;SDS011;65693;49.798;10.968;2023-05-14T08:04:38;5.90;;;4.40;;
49972;SDS011;65693;49.798;10.968;2023-05-14T08:07:04;5.95;;;4.88;;
49972;SDS011;65693;49.798;10.968;2023-05-14T08:09:31;5.95;;;4.90;;
49972;SDS011;65693;49.798;10.968;2023-05-14T08:11:57;5.45;;;4.20;;
49972;SDS011;65693;49.798;10.968;2023-05-14T08:14:25;5.70;;;4.50;;
49972;SDS011;65693;49.798;10.968;2023-05-14T08:16:52;6.00;;;4.88;;
49972;SDS011;65693;49.798;10.968;2023-05-14T08:19:18;5.85;;;5.10;;
49972;SDS011;65693;49.798;10.968;2023-05-14T08:21:45;6.65;;;4.60;;
49972;SDS011;65693;49.798;10.968;2023-05-14T08:24:11;6.10;;;4.72;;
49972;SDS011;65693;49.798;10.968;2023-05-14T08:26:39;5.88;;;4.65;;
49972;SDS011;65693;49.798;10.968;2023-05-14T08:29:05;5.60;;;4.55;;
49972;SDS011;65693;49.798;10.968;2023-05-14T08:31:33;5.38;;;4.30;;
49972;SDS011;65693;49.798;10.968;2023-05-14T08:34:00;5.75;;;5.03;;
49972;SDS011;65693;49.798;10.968;2023-05-14T08:36:26;6.47;;;5.15;;
49972;SDS011;65693;49.798;10.968;2023-05-14T08:38:53;5.78;;;4.57;;
49972;SDS011;65693;49.798;10.968;2023-05-14T08:41:19;5.57;;;4.55;;
49972;SDS011;65693;49.798;10.968;2023-05-14T08:43:49;7.13;;;4.95;;
49972;SDS011;65693;49.798;10.968;2023-05-14T08:46:23;5.43;;;4.35;;
49972;SDS011;65693;49.798;10.968;2023-05-14T08:48:53;6.57;;;5.07;;
49972;SDS011;65693;49.798;10.968;2023-05-14T08:51:22;5.70;;;4.70;;
49972;SDS011;65693;49.798;10.968;2023-05-14T08:53:50;6.22;;;4.30;;
49972;SDS011;65693;49.798;10.968;2023-05-14T08:56:16;6.05;;;5.45;;
49972;SDS011;65693;49.798;10.968;2023-05-14T08:58:43;6.20;;;4.60;;
49972;SDS011;65693;49.798;10.968;2023-05-14T09:01:09;5.22;;;4.60;;
49972;SDS011;65693;49.798;10.968;2023-05-14T09:03:36;5.10;;;4.28;;
49972;SDS011;65693;49.798;10.968;2023-05-14T09:06:05;5.75;;;4.45;;
49972;SDS011;65693;49.798;10.968;2023-05-14T09:08:32;5.82;;;4.72;;
49972;SDS011;65693;49.798;10.968;2023-05-14T09:11:00;6.20;;;4.75;;
49972;SDS011;65693;49.798;10.968;2023-05-14T09:13:26;6.55;;;5.00;;
49972;SDS011;65693;49.798;10.968;2023-05-14T09:15:53;5.82;;;4.95;;
49972;SDS011;65693;49.798;10.968;2023-05-14T09:18:20;5.85;;;5.03;;
49972;SDS011;65693;49.798;10.968;2023-05-14T09:20:46;5.78;;;4.43;;
49972;SDS011;65693;49.798;10.968;2023-05-14T09:23:14;6.80;;;5.45;;
49972;SDS011;65693;49.798;10.968;2023-05-14T09:25:40;6.13;;;4.85;;
49972;SDS011;65693;49.798;10.968;2023-05-14T09:28:07;6.70;;;5.00;;
49972;SDS011;65693;49.798;10.968;2023-05-14T09:30:34;7.10;;;4.97;;
49972;SDS011;65693;49.798;10.968;2023-05-14T09:33:01;6.97;;;4.65;;
49972;SDS011;65693;49.798;10.968;2023-05-14T09:35:28;6.88;;;4.95;;
49972;SDS011;65693;49.798;10.968;2023-05-14T09:37:56;5.55;;;4.75;;
49972;SDS011;65693;49.798;10.968;2023-05-14T09:40:24;5.72;;;4.88;;
49972;SDS011;65693;49.798;10.968;2023-05-14T09:42:50;6.05;;;4.63;;
49972;SDS011;65693;49.798;10.968;2023-05-14T09:45:17;7.00;;;5.55;;
49972;SDS011;65693;49.798;10.968;2023-05-14T09:47:43;6.10;;;4.78;;
49972;SDS011;65693;49.798;10.968;2023-05-14T09:50:10;6.03;;;4.65;;
49972;SDS011;65693;49.798;10.968;2023-05-14T09:52:36;6.45;;;4.88;;
49972;SDS011;65693;49.798;10.968;2023-05-14T09:55:03;6.00;;;4.97;;
49972;SDS011;65693;49.798;10.968;2023-05-14T09:57:32;6.50;;;5.03;;
49972;SDS011;65693;49.798;10.968;2023-05-14T09:59:59;5.97;;;4.32;;
49972;SDS011;65693;49.798;10.968;2023-05-14T10:02:29;6.05;;;5.05;;
49972;SDS011;65693;49.798;10.968;2023-05-14T10:05:02;6.10;;;4.53;;
49972;SDS011;65693;49.798;10.968;2023-05-14T10:07:31;5.53;;;4.40;;
49972;SDS011;65693;49.798;10.968;2023-05-14T10:10:02;6.03;;;4.68;;
49972;SDS011;65693;49.798;10.968;2023-05-14T10:12:33;5.72;;;4.20;;
49972;SDS011;65693;49.798;10.968;2023-05-14T10:15:05;5.95;;;4.82;;
49972;SDS011;65693;49.798;10.968;2023-05-14T10:17:37;5.30;;;4.28;;
49972;SDS011;65693;49.798;10.968;2023-05-14T10:20:07;5.57;;;4.97;;
49972;SDS011;65693;49.798;10.968;2023-05-14T10:22:36;6.35;;;5.22;;
49972;SDS011;65693;49.798;10.968;2023-05-14T10:25:03;6.30;;;5.35;;
49972;SDS011;65693;49.798;10.968;2023-05-14T10:27:31;5.90;;;4.85;;
49972;SDS011;65693;49.798;10.968;2023-05-14T10:29:59;6.45;;;5.13;;
49972;SDS011;65693;49.798;10.968;2023-05-14T10:32:30;6.72;;;4.80;;
49972;SDS011;65693;49.798;10.968;2023-05-14T10:34:58;6.38;;;4.97;;
49972;SDS011;65693;49.798;10.968;2023-05-14T10:37:26;6.97;;;5.13;;
49972;SDS011;65693;49.798;10.968;2023-05-14T10:39:56;6.60;;;4.80;;
49972;SDS011;65693;49.798;10.968;2023-05-14T10:42:24;5.80;;;5.18;;
49972;SDS011;65693;49.798;10.968;2023-05-14T10:44:52;5.88;;;4.85;;
49972;SDS011;65693;49.798;10.968;2023-05-14T10:47:23;7.78;;;5.18;;
49972;SDS011;65693;49.798;10.968;2023-05-14T10:49:52;5.10;;;4.28;;
49972;SDS011;65693;49.798;10.968;2023-05-14T10:52:19;6.38;;;4.88;;
49972;SDS011;65693;49.798;10.968;2023-05-14T10:54:50;5.38;;;4.13;;
49972;SDS011;65693;49.798;10.968;2023-05-14T10:57:18;6.15;;;4.85;;
49972;SDS011;65693;49.798;10.968;2023-05-14T10:59:46;7.32;;;5.20;;
49972;SDS011;65693;49.798;10.968;2023-05-14T11:02:20;5.47;;;4.45;;
49972;SDS011;65693;49.798;10.968;2023-05-14T11:04:52;5.70;;;4.88;;
49972;SDS011;65693;49.798;10.968;2023-05-14T11:07:22;6.22;;;4.78;;
49972;SDS011;65693;49.798;10.968;2023-05-14T11:09:49;6.15;;;5.10;;
49972;SDS011;65693;49.798;10.968;2023-05-14T11:12:16;6.47;;;4.97;;
49972;SDS011;65693;49.798;10.968;2023-05-14T11:14:43;7.47;;;5.07;;
49972;SDS011;65693;49.798;10.968;2023-05-14T11:17:10;7.47;;;4.78;;
49972;SDS011;65693;49.798;10.968;2023-05-14T11:19:36;6.32;;;5.15;;
49972;SDS011;65693;49.798;10.968;2023-05-14T11:22:04;6.10;;;4.47;;
49972;SDS011;65693;49.798;10.968;2023-05-14T11:24:31;6.20;;;4.88;;
49972;SDS011;65693;49.798;10.968;2023-05-14T11:26:58;6.30;;;5.13;;
49972;SDS011;65693;49.798;10.968;2023-05-14T11:29:25;6.25;;;5.05;;
49972;SDS011;65693;49.798;10.968;2023-05-14T11:31:51;5.75;;;4.68;;
49972;SDS011;65693;49.798;10.968;2023-05-14T11:34:17;5.72;;;4.78;;
49972;SDS011;65693;49.798;10.968;2023-05-14T11:36:44;6.13;;;5.15;;
49972;SDS011;65693;49.798;10.968;2023-05-14T11:39:17;6.43;;;5.00;;
49972;SDS011;65693;49.798;10.968;2023-05-14T11:41:44;6.50;;;4.78;;
49972;SDS011;65693;49.798;10.968;2023-05-14T11:44:10;6.53;;;4.90;;
49972;SDS011;65693;49.798;10.968;2023-05-14T11:46:37;6.53;;;5.20;;
49972;SDS011;65693;49.798;10.968;2023-05-14T11:49:03;6.28;;;4.50;;
49972;SDS011;65693;49.798;10.968;2023-05-14T11:51:30;6.63;;;5.10;;
49972;SDS011;65693;49.798;10.968;2023-05-14T11:53:57;6.45;;;4.95;;
49972;SDS011;65693;49.798;10.968;2023-05-14T11:56:25;5.70;;;4.65;;
49972;SDS011;65693;49.798;10.968;2023-05-14T11:58:54;7.00;;;5.20;;
49972;SDS011;65693;49.798;10.968;2023-05-14T12:01:21;6.18;;;5.00;;
49972;SDS011;65693;49.798;10.968;2023-05-14T12:03:48;5.55;;;4.70;;
49972;SDS011;65693;49.798;10.968;2023-05-14T12:06:15;6.93;;;5.32;;
49972;SDS011;65693;49.798;10.968;2023-05-14T12:08:43;6.60;;;5.15;;
49972;SDS011;65693;49.798;10.968;2023-05-14T12:11:09;6.93;;;4.63;;
49972;SDS011;65693;49.798;10.968;2023-05-14T12:13:37;6.07;;;4.97;;
49972;SDS011;65693;49.798;10.968;2023-05-14T12:16:04;5.78;;;4.68;;
49972;SDS011;65693;49.798;10.968;2023-05-14T12:18:32;5.63;;;4.60;;
49972;SDS011;65693;49.798;10.968;2023-05-14T12:21:00;7.78;;;5.00;;
49972;SDS011;65693;49.798;10.968;2023-05-14T12:23:28;7.35;;;5.45;;
49972;SDS011;65693;49.798;10.968;2023-05-14T12:25:59;5.57;;;4.60;;
49972;SDS011;65693;49.798;10.968;2023-05-14T12:28:27;5.72;;;4.68;;
49972;SDS011;65693;49.798;10.968;2023-05-14T12:30:56;5.90;;;4.40;;
49972;SDS011;65693;49.798;10.968;2023-05-14T12:33:23;6.00;;;4.75;;
49972;SDS011;65693;49.798;10.968;2023-05-14T12:35:51;5.32;;;4.53;;
49972;SDS011;65693;49.798;10.968;2023-05-14T12:38:18;5.57;;;4.93;;
49972;SDS011;65693;49.798;10.968;2023-05-14T12:40:45;6.97;;;5.32;;
49972;SDS011;65693;49.798;10.968;2023-05-14T12:43:11;6.43;;;4.88;;
49972;SDS011;65693;49.798;10.968;2023-05-14T12:45:38;5.72;;;5.05;;
49972;SDS011;65693;49.798;10.968;2023-05-14T12:48:06;6.80;;;5.32;;
49972;SDS011;65693;49.798;10.968;2023-05-14T12:50:32;6.22;;;4.88;;
49972;SDS011;65693;49.798;10.968;2023-05-14T12:52:59;6.07;;;4.75;;
49972;SDS011;65693;49.798;10.968;2023-05-14T12:55:25;7.57;;;5.72;;
49972;SDS011;65693;49.798;10.968;2023-05-14T12:57:52;6.40;;;5.07;;
49972;SDS011;65693;49.798;10.968;2023-05-14T13:00:19;5.47;;;4.60;;
49972;SDS011;65693;49.798;10.968;2023-05-14T13:02:45;5.97;;;5.22;;
49972;SDS011;65693;49.798;10.968;2023-05-14T13:05:13;6.47;;;5.15;;
49972;SDS011;65693;49.798;10.968;2023-05-14T13:07:39;5.88;;;4.70;;
49972;SDS011;65693;49.798;10.968;2023-05-14T13:10:06;6.95;;;5.70;;
49972;SDS011;65693;49.798;10.968;2023-05-14T13:12:33;5.63;;;4.90;;
49972;SDS011;65693;49.798;10.968;2023-05-14T13:15:00;5.72;;;4.50;;
49972;SDS011;65693;49.798;10.968;2023-05-14T13:17:26;5.57;;;4.85;;
49972;SDS011;65693;49.798;10.968;2023-05-14T13:19:53;5.57;;;4.63;;
49972;SDS011;65693;49.798;10.968;2023-05-14T13:22:21;6.32;;;5.10;;
49972;SDS011;65693;49.798;10.968;2023-05-14T13:24:47;6.22;;;4.93;;
49972;SDS011;65693;49.798;10.968;2023-05-14T13:27:13;5.78;;;4.97;;
49972;SDS011;65693;49.798;10.968;2023-05-14T13:29:40;5.95;;;4.57;;
49972;SDS011;65693;49.798;10.968;2023-05-14T13:32:06;6.40;;;5.13;;
49972;SDS011;65693;49.798;10.968;2023-05-14T13:34:33;6.05;;;4.80;;
49972;SDS011;65693;49.798;10.968;2023-05-14T13:37:00;6.78;;;4.90;;
49972;SDS011;65693;49.798;10.968;2023-05-14T13:39:28;6.75;;;4.60;;
49972;SDS011;65693;49.798;10.968;2023-05-14T13:41:54;6.07;;;5.00;;
49972;SDS011;65693;49.798;10.968;2023-05-14T13:44:21;5.53;;;4.53;;
49972;SDS011;65693;49.798;10.968;2023-05-14T13:46:47;6.38;;;5.30;;
49972;SDS011;65693;49.798;10.968;2023-05-14T13:49:13;6.10;;;4.60;;
49972;SDS011;65693;49.798;10.968;2023-05-14T13:51:40;6.38;;;5.10;;
49972;SDS011;65693;49.798;10.968;2023-05-14T13:54:06;5.82;;;4.57;;
49972;SDS011;65693;49.798;10.968;2023-05-14T13:56:34;6.22;;;5.30;;
49972;SDS011;65693;49.798;10.968;2023-05-14T13:59:00;5.90;;;4.82;;
49972;SDS011;65693;49.798;10.968;2023-05-14T14:01:27;6.25;;;4.88;;
49972;SDS011;65693;49.798;10.968;2023-05-14T14:03:54;6.28;;;4.97;;
49972;SDS011;65693;49.798;10.968;2023-05-14T14:06:21;6.35;;;4.88;;
49972;SDS011;65693;49.798;10.968;2023-05-14T14:08:47;5.97;;;4.45;;
49972;SDS011;65693;49.798;10.968;2023-05-14T14:11:13;5.88;;;4.95;;
49972;SDS011;65693;49.798;10.968;2023-05-14T14:13:42;5.82;;;4.63;;
49972;SDS011;65693;49.798;10.968;2023-05-14T14:16:09;5.95;;;5.10;;
49972;SDS011;65693;49.798;10.968;2023-05-14T14:18:35;5.50;;;4.65;;
49972;SDS011;65693;49.798;10.968;2023-05-14T14:21:02;6.20;;;5.00;;
49972;SDS011;65693;49.798;10.968;2023-05-14T14:23:28;5.82;;;5.07;;
49972;SDS011;65693;49.798;10.968;2023-05-14T14:25:55;6.40;;;5.03;;
49972;SDS011;65693;49.798;10.968;2023-05-14T14:28:21;5.85;;;5.13;;
49972;SDS011;65693;49.798;10.968;2023-05-14T14:30:49;6.25;;;5.03;;
49972;SDS011;65693;49.798;10.968;2023-05-14T14:33:15;5.45;;;4.65;;